createdAt,value
2023-01-25T00:02:08.200Z,102766.22
2023-01-25T00:04:34.838Z,102758.44
2023-01-25T00:07:01.439Z,102760.34
2023-01-25T00:09:28.062Z,102753.09
2023-01-25T00:11:57.885Z,102746.56
2023-01-25T00:14:25.073Z,102752.50
2023-01-25T00:16:51.832Z,102743.69
2023-01-25T00:19:18.804Z,102748.88
2023-01-25T00:21:45.718Z,102741.91
2023-01-25T00:24:14.188Z,102745.81
2023-01-25T00:26:43.858Z,102740.25
2023-01-25T00:29:14.290Z,102746.53
2023-01-25T00:32:09.900Z,102741.00
2023-01-25T00:34:44.309Z,102735.91
2023-01-25T00:37:25.331Z,102724.28
2023-01-25T00:39:52.203Z,102729.25
2023-01-25T00:42:19.853Z,102718.13
2023-01-25T00:44:47.771Z,102721.88
2023-01-25T00:47:15.515Z,102722.91
2023-01-25T00:49:43.715Z,102723.31
2023-01-25T00:52:11.353Z,102723.38
2023-01-25T00:54:38.520Z,102721.03
2023-01-25T00:57:05.401Z,102715.69
2023-01-25T00:59:32.514Z,102729.47
2023-01-25T01:01:59.138Z,102720.75
2023-01-25T01:04:26.180Z,102718.31
2023-01-25T01:06:54.068Z,102720.00
2023-01-25T01:09:22.065Z,102716.44
2023-01-25T01:11:48.961Z,102719.47
2023-01-25T01:15:14.521Z,102721.19
2023-01-25T01:19:14.971Z,102721.19
2023-01-25T01:22:18.940Z,102715.69
2023-01-25T01:24:48.357Z,102712.94
2023-01-25T01:27:15.033Z,102712.91
2023-01-25T01:29:41.735Z,102718.28
2023-01-25T01:32:08.614Z,102713.22
2023-01-25T01:34:35.405Z,102703.38
2023-01-25T01:37:02.002Z,102711.34
2023-01-25T01:39:28.620Z,102709.31
2023-01-25T01:41:55.321Z,102702.31
2023-01-25T01:44:42.312Z,102705.47
2023-01-25T01:47:15.744Z,102710.97
2023-01-25T01:49:48.038Z,102708.91
2023-01-25T01:52:20.357Z,102712.13
2023-01-25T01:55:02.948Z,102703.66
2023-01-25T01:57:40.827Z,102709.88
2023-01-25T02:00:14.134Z,102710.31
2023-01-25T02:02:42.403Z,102702.91
2023-01-25T02:05:20.573Z,102707.84
2023-01-25T02:07:51.669Z,102708.75
2023-01-25T02:10:20.660Z,102706.88
2023-01-25T02:12:48.809Z,102705.25
2023-01-25T02:15:15.619Z,102703.81
2023-01-25T02:17:42.669Z,102692.50
2023-01-25T02:20:14.677Z,102703.63
2023-01-25T02:22:53.268Z,102708.69
2023-01-25T02:25:20.326Z,102704.78
2023-01-25T02:28:28.983Z,102701.19
2023-01-25T02:30:55.706Z,102701.03
2023-01-25T02:33:25.124Z,102698.88
2023-01-25T02:35:59.401Z,102700.63
2023-01-25T02:38:28.055Z,102707.88
2023-01-25T02:41:21.530Z,102705.53
2023-01-25T02:43:48.148Z,102705.81
2023-01-25T02:46:25.941Z,102712.72
2023-01-25T02:48:56.365Z,102709.53
2023-01-25T02:51:24.851Z,102715.09
2023-01-25T02:53:52.406Z,102709.31
2023-01-25T02:56:19.919Z,102705.41
2023-01-25T02:58:48.113Z,102707.03
2023-01-25T03:01:16.570Z,102710.59
2023-01-25T03:03:43.311Z,102710.75
2023-01-25T03:06:10.654Z,102700.63
2023-01-25T03:08:37.555Z,102694.41
2023-01-25T03:11:06.310Z,102694.81
2023-01-25T03:13:35.409Z,102687.16
2023-01-25T03:16:05.908Z,102681.19
2023-01-25T03:18:33.736Z,102687.25
2023-01-25T03:21:11.319Z,102675.06
2023-01-25T03:23:39.819Z,102669.63
2023-01-25T03:26:16.893Z,102663.00
2023-01-25T03:29:07.533Z,102664.34
2023-01-25T03:31:37.795Z,102663.69
2023-01-25T03:34:04.474Z,102655.47
2023-01-25T03:36:35.335Z,102656.63
2023-01-25T03:39:03.213Z,102654.06
2023-01-25T03:41:29.985Z,102660.25
2023-01-25T03:43:59.213Z,102648.38
2023-01-25T03:46:27.621Z,102643.72
2023-01-25T03:48:54.413Z,102641.69
2023-01-25T03:51:21.358Z,102630.03
2023-01-25T03:53:48.320Z,102634.34
2023-01-25T03:56:20.147Z,102626.38
2023-01-25T03:59:07.988Z,102635.47
2023-01-25T04:01:35.062Z,102624.91
2023-01-25T04:04:02.711Z,102628.41
2023-01-25T04:06:29.856Z,102620.88
2023-01-25T04:08:57.326Z,102609.00
2023-01-25T04:11:25.875Z,102602.53
2023-01-25T04:13:52.520Z,102607.94
2023-01-25T04:16:21.360Z,102600.09
2023-01-25T04:19:12.005Z,102607.84
2023-01-25T04:21:39.352Z,102601.22
2023-01-25T04:24:06.314Z,102601.28
2023-01-25T04:26:36.828Z,102600.69
2023-01-25T04:29:03.830Z,102594.63
2023-01-25T04:31:31.167Z,102590.84
2023-01-25T04:33:58.192Z,102589.25
2023-01-25T04:36:24.820Z,102583.59
2023-01-25T04:38:51.783Z,102585.78
2023-01-25T04:41:19.747Z,102592.13
2023-01-25T04:43:46.281Z,102590.84
2023-01-25T04:46:14.346Z,102586.19
2023-01-25T04:48:40.926Z,102585.91
2023-01-25T04:51:09.367Z,102576.97
2023-01-25T04:53:35.909Z,102583.19
2023-01-25T04:56:05.671Z,102583.56
2023-01-25T04:58:38.039Z,102572.00
2023-01-25T05:01:05.350Z,102575.59
2023-01-25T05:03:32.440Z,102573.00
2023-01-25T05:05:59.336Z,102570.16
2023-01-25T05:08:26.739Z,102580.06
2023-01-25T05:10:58.444Z,102579.66
2023-01-25T05:13:25.114Z,102582.81
2023-01-25T05:16:00.632Z,102580.81
2023-01-25T05:18:33.135Z,102588.47
2023-01-25T05:21:25.924Z,102585.00
2023-01-25T05:23:53.137Z,102577.66
2023-01-25T05:26:38.721Z,102574.78
2023-01-25T05:29:06.611Z,102574.19
2023-01-25T05:31:40.663Z,102570.56
2023-01-25T05:34:09.069Z,102580.81
2023-01-25T05:36:35.658Z,102576.31
2023-01-25T05:39:02.221Z,102577.69
2023-01-25T05:41:31.371Z,102579.16
2023-01-25T05:43:58.455Z,102576.25
2023-01-25T05:46:27.702Z,102577.75
2023-01-25T05:48:54.596Z,102579.66
2023-01-25T05:51:23.803Z,102577.38
2023-01-25T05:53:50.477Z,102576.09
2023-01-25T05:56:17.935Z,102567.94
2023-01-25T05:58:44.538Z,102572.47
2023-01-25T06:01:11.641Z,102570.28
2023-01-25T06:03:46.764Z,102574.31
2023-01-25T06:06:13.853Z,102567.19
2023-01-25T06:08:42.071Z,102572.56
2023-01-25T06:11:10.464Z,102569.84
2023-01-25T06:13:41.097Z,102559.53
2023-01-25T06:16:08.289Z,102562.00
2023-01-25T06:18:58.101Z,102564.44
2023-01-25T06:21:46.297Z,102558.44
2023-01-25T06:24:12.886Z,102570.69
2023-01-25T06:26:39.572Z,102570.41
2023-01-25T06:29:06.877Z,102562.03
2023-01-25T06:31:34.821Z,102564.41
2023-01-25T06:34:04.426Z,102559.53
2023-01-25T06:36:32.192Z,102565.56
2023-01-25T06:38:58.767Z,102569.03
2023-01-25T06:41:25.825Z,102561.50
2023-01-25T06:43:53.048Z,102573.41
2023-01-25T06:46:20.173Z,102567.84
2023-01-25T06:48:46.799Z,102566.03
2023-01-25T06:51:16.400Z,102572.44
2023-01-25T06:53:44.721Z,102572.03
2023-01-25T06:56:21.439Z,102570.31
2023-01-25T06:58:49.026Z,102566.88
2023-01-25T07:01:21.316Z,102567.63
2023-01-25T07:03:53.646Z,102571.16
2023-01-25T07:06:20.866Z,102570.38
2023-01-25T07:08:48.185Z,102567.69
2023-01-25T07:11:16.000Z,102566.09
2023-01-25T07:13:45.612Z,102564.06
2023-01-25T07:16:17.466Z,102558.97
2023-01-25T07:18:44.476Z,102554.81
2023-01-25T07:21:16.747Z,102557.72
2023-01-25T07:23:44.089Z,102559.06
2023-01-25T07:26:17.565Z,102561.13
2023-01-25T07:28:45.850Z,102557.53
2023-01-25T07:31:12.624Z,102560.44
2023-01-25T07:33:39.153Z,102550.81
2023-01-25T07:36:08.212Z,102550.88
2023-01-25T07:38:36.267Z,102549.91
2023-01-25T07:41:03.551Z,102549.31
2023-01-25T07:43:30.631Z,102537.25
2023-01-25T07:46:11.041Z,102548.31
2023-01-25T07:48:38.396Z,102548.53
2023-01-25T07:51:31.043Z,102543.63
2023-01-25T07:54:03.081Z,102539.94
2023-01-25T07:56:35.180Z,102546.66
2023-01-25T07:59:08.044Z,102537.88
2023-01-25T08:01:36.519Z,102538.63
2023-01-25T08:04:04.666Z,102529.53
2023-01-25T08:06:36.297Z,102523.28
2023-01-25T08:09:11.036Z,102539.44
2023-01-25T08:11:37.849Z,102535.53
2023-01-25T08:14:04.522Z,102532.03
2023-01-25T08:16:32.128Z,102531.47
2023-01-25T08:19:00.950Z,102531.31
2023-01-25T08:21:31.414Z,102521.78
2023-01-25T08:24:04.117Z,102526.19
2023-01-25T08:26:31.049Z,102526.72
2023-01-25T08:28:58.291Z,102542.41
2023-01-25T08:31:28.389Z,102532.97
2023-01-25T08:33:55.382Z,102524.16
2023-01-25T08:36:24.158Z,102530.34
2023-01-25T08:38:55.820Z,102531.13
2023-01-25T08:41:22.741Z,102521.84
2023-01-25T08:43:52.544Z,102524.72
2023-01-25T08:46:20.157Z,102524.06
2023-01-25T08:48:47.928Z,102530.22
2023-01-25T08:51:16.938Z,102527.84
2023-01-25T08:53:43.958Z,102521.75
2023-01-25T08:56:12.889Z,102527.72
2023-01-25T08:58:42.062Z,102516.75
2023-01-25T09:01:10.739Z,102513.97
2023-01-25T09:03:46.096Z,102519.78
2023-01-25T09:06:13.387Z,102515.25
2023-01-25T09:08:40.304Z,102512.25
2023-01-25T09:11:10.107Z,102509.50
2023-01-25T09:13:36.972Z,102501.75
2023-01-25T09:16:06.568Z,102493.84
2023-01-25T09:18:35.353Z,102496.47
2023-01-25T09:21:09.693Z,102496.66
2023-01-25T09:23:50.259Z,102494.03
2023-01-25T09:26:23.309Z,102485.22
2023-01-25T09:28:52.456Z,102487.16
2023-01-25T09:31:23.225Z,102480.78
2023-01-25T09:34:08.917Z,102472.59
2023-01-25T09:36:36.223Z,102471.00
2023-01-25T09:39:03.379Z,102481.22
2023-01-25T09:42:14.627Z,102478.81
2023-01-25T09:45:07.130Z,102477.94
2023-01-25T09:48:02.964Z,102468.50
2023-01-25T09:50:38.341Z,102472.84
2023-01-25T09:53:24.181Z,102474.16
2023-01-25T09:55:54.081Z,102475.59
2023-01-25T09:58:26.379Z,102472.31
2023-01-25T10:01:05.853Z,102473.34
2023-01-25T10:03:48.353Z,102470.03
2023-01-25T10:06:17.353Z,102461.28
2023-01-25T10:09:01.115Z,102461.75
2023-01-25T10:11:30.671Z,102455.41
2023-01-25T10:13:58.374Z,102464.31
2023-01-25T10:16:46.181Z,102466.41
2023-01-25T10:19:24.468Z,102464.06
2023-01-25T10:22:29.901Z,102457.47
2023-01-25T10:25:19.128Z,102456.44
2023-01-25T10:27:50.053Z,102460.50
2023-01-25T10:30:39.882Z,102451.53
2023-01-25T10:33:18.009Z,102448.41
2023-01-25T10:35:47.697Z,102446.38
2023-01-25T10:38:23.432Z,102445.38
2023-01-25T10:40:56.365Z,102434.97
2023-01-25T10:43:23.361Z,102435.00
2023-01-25T10:45:50.687Z,102429.78
2023-01-25T10:48:24.568Z,102423.31
2023-01-25T10:50:55.870Z,102415.28
2023-01-25T10:53:26.671Z,102423.09
2023-01-25T10:56:10.365Z,102407.91
2023-01-25T10:58:39.878Z,102409.66
2023-01-25T11:01:12.171Z,102402.84
2023-01-25T11:03:46.917Z,102405.31
2023-01-25T11:06:13.463Z,102407.78
2023-01-25T11:08:42.257Z,102400.63
2023-01-25T11:11:23.187Z,102381.28
2023-01-25T11:13:50.321Z,102388.19
2023-01-25T11:16:23.147Z,102389.19
2023-01-25T11:18:52.268Z,102382.41
2023-01-25T11:21:23.176Z,102381.56
2023-01-25T11:24:01.668Z,102378.50
2023-01-25T11:26:29.016Z,102361.03
2023-01-25T11:29:12.512Z,102359.84
2023-01-25T11:31:45.927Z,102350.63
2023-01-25T11:34:15.848Z,102346.00
2023-01-25T11:36:57.310Z,102330.25
2023-01-25T11:39:47.948Z,102331.84
2023-01-25T11:42:26.207Z,102319.03
2023-01-25T11:45:09.720Z,102323.03
2023-01-25T11:47:51.444Z,102307.75
2023-01-25T11:50:36.021Z,102311.94
2023-01-25T11:53:21.417Z,102301.16
2023-01-25T11:56:15.047Z,102294.28
2023-01-25T11:59:06.142Z,102284.19
2023-01-25T12:01:41.485Z,102270.59
2023-01-25T12:04:08.010Z,102273.47
2023-01-25T12:06:55.568Z,102257.88
2023-01-25T12:09:36.538Z,102251.78
2023-01-25T12:12:18.409Z,102258.03
2023-01-25T12:14:56.067Z,102246.31
2023-01-25T12:17:38.607Z,102229.84
2023-01-25T12:20:20.332Z,102226.22
2023-01-25T12:23:21.056Z,102227.75
2023-01-25T12:25:52.277Z,102224.91
2023-01-25T12:28:25.458Z,102217.53
2023-01-25T12:31:24.866Z,102205.56
2023-01-25T12:34:05.035Z,102199.34
2023-01-25T12:36:37.450Z,102193.38
2023-01-25T12:39:06.398Z,102185.75
2023-01-25T12:41:44.831Z,102168.03
2023-01-25T12:44:23.822Z,102173.66
2023-01-25T12:46:57.681Z,102166.19
2023-01-25T12:49:33.512Z,102159.31
2023-01-25T12:52:06.542Z,102164.50
2023-01-25T12:54:38.061Z,102160.03
2023-01-25T12:57:22.079Z,102145.84
2023-01-25T13:00:00.646Z,102142.50
2023-01-25T13:02:50.300Z,102135.31
2023-01-25T13:05:48.354Z,102115.38
2023-01-25T13:08:33.792Z,102122.38
2023-01-25T13:11:12.620Z,102123.81
2023-01-25T13:13:39.566Z,102120.84
2023-01-25T13:16:28.916Z,102111.09
2023-01-25T13:18:56.491Z,102101.31
2023-01-25T13:21:40.199Z,102108.53
2023-01-25T13:24:11.109Z,102102.94
2023-01-25T13:26:49.536Z,102105.94
2023-01-25T13:29:45.798Z,102098.47
2023-01-25T13:32:24.518Z,102093.06
2023-01-25T13:34:51.595Z,102092.53
2023-01-25T13:37:20.343Z,102087.25
2023-01-25T13:39:49.895Z,102084.00
2023-01-25T13:42:19.651Z,102080.78
2023-01-25T13:44:55.765Z,102074.16
2023-01-25T13:47:43.533Z,102077.75
2023-01-25T13:50:27.522Z,102077.44
2023-01-25T13:53:01.606Z,102070.47
2023-01-25T13:55:29.507Z,102075.22
2023-01-25T13:58:19.148Z,102069.63
2023-01-25T14:00:52.973Z,102072.81
2023-01-25T14:03:23.144Z,102061.75
2023-01-25T14:05:52.579Z,102066.22
2023-01-25T14:08:20.869Z,102057.09
2023-01-25T14:10:48.696Z,102064.47
2023-01-25T14:13:17.361Z,102066.78
2023-01-25T14:15:58.669Z,102068.06
2023-01-25T14:18:32.576Z,102067.69
2023-01-25T14:21:20.493Z,102067.13
2023-01-25T14:23:49.012Z,102066.09
2023-01-25T14:26:26.589Z,102067.97
2023-01-25T14:29:01.365Z,102059.00
2023-01-25T14:31:38.117Z,102047.25
2023-01-25T14:34:06.148Z,102051.66
2023-01-25T14:36:34.662Z,102045.56
2023-01-25T14:39:03.789Z,102043.75
2023-01-25T14:41:37.184Z,102038.09
2023-01-25T14:44:13.473Z,102027.81
2023-01-25T14:46:41.527Z,102032.28
2023-01-25T14:49:25.229Z,102025.75
2023-01-25T14:51:54.813Z,102019.41
2023-01-25T14:54:28.108Z,102010.59
2023-01-25T14:56:57.652Z,102014.34
2023-01-25T14:59:27.359Z,102018.63
2023-01-25T15:01:56.182Z,102014.78
2023-01-25T15:04:23.395Z,102014.22
2023-01-25T15:06:57.382Z,102009.09
2023-01-25T15:09:34.040Z,102011.22
2023-01-25T15:12:16.098Z,102014.81
2023-01-25T15:14:51.088Z,102014.28
2023-01-25T15:17:37.806Z,102010.16
2023-01-25T15:20:04.755Z,101998.91
2023-01-25T15:22:31.416Z,102005.25
2023-01-25T15:24:58.704Z,102000.72
2023-01-25T15:27:25.255Z,101996.94
2023-01-25T15:29:51.912Z,101996.16
2023-01-25T15:32:21.029Z,101989.19
2023-01-25T15:34:48.300Z,101996.72
2023-01-25T15:37:14.889Z,101978.88
2023-01-25T15:39:41.479Z,101984.09
2023-01-25T15:42:09.051Z,101971.50
2023-01-25T15:44:35.625Z,101986.03
2023-01-25T15:47:02.307Z,101981.06
2023-01-25T15:49:31.534Z,101979.13
2023-01-25T15:51:58.259Z,101983.00
2023-01-25T15:54:25.014Z,101972.50
2023-01-25T15:56:55.944Z,101974.72
2023-01-25T15:59:22.646Z,101966.50
2023-01-25T16:01:49.199Z,101961.94
2023-01-25T16:04:16.028Z,101960.09
2023-01-25T16:06:54.007Z,101966.22
2023-01-25T16:09:22.241Z,101970.97
2023-01-25T16:11:54.216Z,101968.81
2023-01-25T16:14:23.441Z,101970.81
2023-01-25T16:16:52.137Z,101955.31
2023-01-25T16:19:21.908Z,101955.03
2023-01-25T16:21:49.322Z,101956.03
2023-01-25T16:24:16.231Z,101952.50
2023-01-25T16:26:53.300Z,101960.94
2023-01-25T16:29:20.462Z,101970.50
2023-01-25T16:31:47.104Z,101960.44
2023-01-25T16:34:13.959Z,101951.84
2023-01-25T16:36:40.719Z,101963.25
2023-01-25T16:39:21.752Z,101949.53
2023-01-25T16:41:49.244Z,101955.47
2023-01-25T16:44:16.454Z,101955.00
2023-01-25T16:46:43.473Z,101956.75
2023-01-25T16:49:22.484Z,101950.63
2023-01-25T16:51:50.315Z,101949.47
2023-01-25T16:54:19.765Z,101942.88
2023-01-25T16:56:47.343Z,101937.38
2023-01-25T16:59:13.937Z,101939.41
2023-01-25T17:01:41.583Z,101945.53
2023-01-25T17:04:09.176Z,101942.31
2023-01-25T17:06:38.185Z,101941.72
2023-01-25T17:09:21.620Z,101943.94
2023-01-25T17:11:49.646Z,101950.72
2023-01-25T17:14:18.660Z,101934.97
2023-01-25T17:16:47.862Z,101930.78
2023-01-25T17:19:15.946Z,101917.94
2023-01-25T17:21:42.764Z,101920.84
2023-01-25T17:24:13.318Z,101913.03
2023-01-25T17:26:40.881Z,101929.66
2023-01-25T17:29:10.029Z,101928.78
2023-01-25T17:31:37.135Z,101929.66
2023-01-25T17:34:06.414Z,101935.03
2023-01-25T17:36:33.290Z,101944.41
2023-01-25T17:39:05.174Z,101939.50
2023-01-25T17:41:32.490Z,101934.47
2023-01-25T17:43:59.385Z,101942.63
2023-01-25T17:46:33.113Z,101946.97
2023-01-25T17:49:02.167Z,101930.97
2023-01-25T17:51:28.799Z,101928.41
2023-01-25T17:53:55.436Z,101927.84
2023-01-25T17:56:21.944Z,101929.38
2023-01-25T17:58:48.769Z,101935.13
2023-01-25T18:01:18.224Z,101927.50
2023-01-25T18:03:46.590Z,101917.28
2023-01-25T18:06:16.764Z,101915.53
2023-01-25T18:08:48.922Z,101914.94
2023-01-25T18:11:18.548Z,101919.84
2023-01-25T18:13:49.939Z,101919.84
2023-01-25T18:16:17.818Z,101900.28
2023-01-25T18:18:45.352Z,101899.41
2023-01-25T18:21:21.944Z,101896.06
2023-01-25T18:23:48.766Z,101888.44
2023-01-25T18:26:26.768Z,101886.56
2023-01-25T18:28:55.239Z,101888.72
2023-01-25T18:31:21.956Z,101886.16
2023-01-25T18:33:48.543Z,101881.50
2023-01-25T18:36:15.993Z,101882.81
2023-01-25T18:38:42.845Z,101869.72
2023-01-25T18:41:09.517Z,101872.59
2023-01-25T18:43:36.113Z,101870.00
2023-01-25T18:46:02.797Z,101868.28
2023-01-25T18:48:32.331Z,101858.59
2023-01-25T18:51:12.819Z,101851.72
2023-01-25T18:53:42.219Z,101851.28
2023-01-25T18:56:12.907Z,101845.22
2023-01-25T18:58:39.899Z,101843.19
2023-01-25T19:01:10.416Z,101840.72
2023-01-25T19:03:37.139Z,101832.22
2023-01-25T19:06:04.426Z,101831.09
2023-01-25T19:08:33.024Z,101819.38
2023-01-25T19:11:05.862Z,101809.88
2023-01-25T19:13:37.204Z,101812.31
2023-01-25T19:16:06.785Z,101810.22
2023-01-25T19:18:39.421Z,101808.31
2023-01-25T19:21:10.249Z,101798.78
2023-01-25T19:23:38.668Z,101798.22
2023-01-25T19:26:07.099Z,101801.81
2023-01-25T19:28:38.667Z,101786.63
2023-01-25T19:31:09.489Z,101777.84
2023-01-25T19:33:36.713Z,101773.94
2023-01-25T19:36:06.517Z,101770.94
2023-01-25T19:38:38.373Z,101761.22
2023-01-25T19:41:06.882Z,101763.25
2023-01-25T19:43:33.521Z,101770.72
2023-01-25T19:46:17.675Z,101771.09
2023-01-25T19:48:46.436Z,101764.47
2023-01-25T19:51:19.816Z,101772.09
2023-01-25T19:53:52.775Z,101757.50
2023-01-25T19:56:19.646Z,101769.97
2023-01-25T19:58:47.936Z,101767.50
2023-01-25T20:01:19.936Z,101773.69
2023-01-25T20:03:47.263Z,101765.63
2023-01-25T20:06:16.262Z,101758.09
2023-01-25T20:08:44.247Z,101768.16
2023-01-25T20:11:19.618Z,101757.50
2023-01-25T20:13:47.023Z,101758.34
2023-01-25T20:16:17.055Z,101757.53
2023-01-25T20:18:45.053Z,101761.84
2023-01-25T20:21:14.675Z,101756.84
2023-01-25T20:23:43.465Z,101750.59
2023-01-25T20:26:15.929Z,101755.34
2023-01-25T20:28:44.295Z,101751.16
2023-01-25T20:31:27.845Z,101754.84
2023-01-25T20:33:59.543Z,101758.03
2023-01-25T20:36:28.575Z,101754.81
2023-01-25T20:38:56.220Z,101753.38
2023-01-25T20:41:23.482Z,101742.97
2023-01-25T20:44:01.972Z,101733.38
2023-01-25T20:46:33.548Z,101736.38
2023-01-25T20:49:01.670Z,101740.72
2023-01-25T20:51:28.510Z,101745.00
2023-01-25T20:53:55.573Z,101739.53
2023-01-25T20:56:23.024Z,101727.69
2023-01-25T20:58:50.777Z,101729.88
2023-01-25T21:01:19.198Z,101726.88
2023-01-25T21:03:46.051Z,101718.81
2023-01-25T21:06:13.422Z,101719.59
2023-01-25T21:08:40.159Z,101714.06
2023-01-25T21:11:07.271Z,101714.78
2023-01-25T21:13:33.938Z,101714.00
2023-01-25T21:16:10.253Z,101717.41
2023-01-25T21:18:39.285Z,101706.72
2023-01-25T21:21:12.328Z,101719.41
2023-01-25T21:23:41.218Z,101712.94
2023-01-25T21:26:10.583Z,101717.06
2023-01-25T21:28:37.191Z,101717.53
2023-01-25T21:31:12.079Z,101714.47
2023-01-25T21:33:39.283Z,101716.41
2023-01-25T21:36:08.586Z,101714.13
2023-01-25T21:38:36.118Z,101721.78
2023-01-25T21:41:04.812Z,101731.75
2023-01-25T21:43:52.600Z,101725.50
2023-01-25T21:46:27.198Z,101731.91
2023-01-25T21:49:18.201Z,101734.47
2023-01-25T21:51:50.824Z,101722.00
2023-01-25T21:54:25.572Z,101712.38
2023-01-25T21:56:54.351Z,101721.72
2023-01-25T21:59:21.636Z,101714.75
2023-01-25T22:01:48.871Z,101715.88
2023-01-25T22:04:17.148Z,101712.63
2023-01-25T22:06:44.141Z,101719.28
2023-01-25T22:09:13.061Z,101716.22
2023-01-25T22:11:40.208Z,101712.19
2023-01-25T22:14:06.815Z,101708.28
2023-01-25T22:16:33.730Z,101710.91
2023-01-25T22:19:00.477Z,101713.25
2023-01-25T22:21:30.599Z,101707.84
2023-01-25T22:23:59.063Z,101711.72
2023-01-25T22:26:29.953Z,101711.59
2023-01-25T22:28:58.715Z,101715.47
2023-01-25T22:31:28.245Z,101717.56
2023-01-25T22:33:56.461Z,101711.09
2023-01-25T22:36:25.100Z,101708.03
2023-01-25T22:38:51.800Z,101697.78
2023-01-25T22:41:23.966Z,101692.69
2023-01-25T22:43:51.329Z,101698.75
2023-01-25T22:46:20.745Z,101688.66
2023-01-25T22:48:47.852Z,101691.22
2023-01-25T22:51:19.893Z,101695.59
2023-01-25T22:53:46.595Z,101681.13
2023-01-25T22:56:16.121Z,101675.13
2023-01-25T22:58:44.311Z,101668.50
2023-01-25T23:01:17.853Z,101662.56
2023-01-25T23:03:45.064Z,101657.69
2023-01-25T23:06:14.640Z,101655.00
2023-01-25T23:08:41.739Z,101662.25
2023-01-25T23:11:11.826Z,101653.91
2023-01-25T23:13:39.794Z,101652.66
2023-01-25T23:16:09.063Z,101651.78
2023-01-25T23:18:51.610Z,101652.84
2023-01-25T23:21:20.988Z,101646.50
2023-01-25T23:23:48.702Z,101643.81
2023-01-25T23:26:16.448Z,101641.63
2023-01-25T23:28:43.403Z,101630.56
2023-01-25T23:31:18.650Z,101626.06
2023-01-25T23:33:47.307Z,101625.59
2023-01-25T23:36:19.025Z,101626.94
2023-01-25T23:38:46.506Z,101629.69
2023-01-25T23:41:14.442Z,101623.78
2023-01-25T23:43:41.500Z,101616.84
2023-01-25T23:46:08.755Z,101613.38
2023-01-25T23:48:35.467Z,101599.75
2023-01-25T23:51:02.561Z,101593.91
2023-01-25T23:53:33.128Z,101582.88
2023-01-25T23:56:02.199Z,101596.41
2023-01-25T23:58:29.946Z,101584.44
